Friendsville, Pennsylvania
Current Conditions -  °F | °C
As of 9:31 AM on Sunday 25 Jan 2015 (Local Time) from KBGM Reporting Station
Broken Clouds Broken Clouds  
Wind Chill:   Ceiling: 2200
Heat Index: 21°   Visibility: 10mi
Dew Point: 12°   Wind: 15mph
Humidity: 68%   Direction: 340°NNW
Pressure: 29.71"   Gusts: 21mph
Location:  41.92°N, 76.05°W
Report Text: KBGM 251431Z 34013G18KT 10SM BKN022 M06/M11 A2971 RMK AO2 SNE1357 P0000 T10611111
Loading
Personal Weather Stations






























Interactive Weather Map New forecast layout! Learn more

10-Day Weather Forecast

Advertisements
Track Severe Weather on mobile